sensor_id;sensor_type;location;lat;lon;timestamp;pressure;altitude;pressure_sealevel;temperature;humidity
76448;BME280;65284;51.040;13.722;2023-02-24T00:01:39;99362.09;;;7.87;92.50
76448;BME280;65284;51.040;13.722;2023-02-24T00:04:08;99350.47;;;7.80;92.67
76448;BME280;65284;51.040;13.722;2023-02-24T00:06:36;99351.28;;;7.81;92.90
76448;BME280;65284;51.040;13.722;2023-02-24T00:09:06;99348.19;;;7.85;92.81
76448;BME280;65284;51.040;13.722;2023-02-24T00:11:38;99353.63;;;7.84;92.67
76448;BME280;65284;51.040;13.722;2023-02-24T00:14:07;99344.09;;;7.91;92.56
76448;BME280;65284;51.040;13.722;2023-02-24T00:16:34;99350.16;;;7.83;92.79
76448;BME280;65284;51.040;13.722;2023-02-24T00:19:03;99345.00;;;7.73;93.16
76448;BME280;65284;51.040;13.722;2023-02-24T00:21:34;99343.38;;;7.81;92.44
76448;BME280;65284;51.040;13.722;2023-02-24T00:24:00;99348.28;;;7.67;91.83
76448;BME280;65284;51.040;13.722;2023-02-24T00:26:27;99342.31;;;7.65;92.26
76448;BME280;65284;51.040;13.722;2023-02-24T00:28:55;99344.31;;;7.71;92.42
76448;BME280;65284;51.040;13.722;2023-02-24T00:31:26;99338.09;;;7.81;91.85
76448;BME280;65284;51.040;13.722;2023-02-24T00:33:57;99340.19;;;7.69;92.05
76448;BME280;65284;51.040;13.722;2023-02-24T00:36:24;99336.38;;;7.63;92.21
76448;BME280;65284;51.040;13.722;2023-02-24T00:38:55;99342.69;;;7.70;92.24
76448;BME280;65284;51.040;13.722;2023-02-24T00:41:28;99340.41;;;7.75;92.30
76448;BME280;65284;51.040;13.722;2023-02-24T00:44:00;99340.34;;;7.67;92.69
76448;BME280;65284;51.040;13.722;2023-02-24T00:46:36;99347.66;;;7.73;92.32
76448;BME280;65284;51.040;13.722;2023-02-24T00:49:07;99337.06;;;7.73;92.21
76448;BME280;65284;51.040;13.722;2023-02-24T00:51:37;99334.06;;;7.68;92.40
76448;BME280;65284;51.040;13.722;2023-02-24T00:54:04;99325.19;;;7.69;92.49
76448;BME280;65284;51.040;13.722;2023-02-24T00:56:31;99324.31;;;7.69;91.83
76448;BME280;65284;51.040;13.722;2023-02-24T00:58:58;99325.19;;;7.69;91.99
76448;BME280;65284;51.040;13.722;2023-02-24T01:01:31;99321.22;;;7.73;91.70
76448;BME280;65284;51.040;13.722;2023-02-24T01:03:59;99322.19;;;7.64;91.61
76448;BME280;65284;51.040;13.722;2023-02-24T01:06:32;99320.84;;;7.60;92.25
76448;BME280;65284;51.040;13.722;2023-02-24T01:08:59;99321.66;;;7.61;90.95
76448;BME280;65284;51.040;13.722;2023-02-24T01:11:31;99313.84;;;7.51;90.71
76448;BME280;65284;51.040;13.722;2023-02-24T01:14:19;99315.84;;;7.57;90.54
76448;BME280;65284;51.040;13.722;2023-02-24T01:16:46;99313.03;;;7.50;90.81
76448;BME280;65284;51.040;13.722;2023-02-24T01:19:16;99307.28;;;7.55;90.58
76448;BME280;65284;51.040;13.722;2023-02-24T01:21:43;99324.59;;;7.49;90.40
76448;BME280;65284;51.040;13.722;2023-02-24T01:24:09;99324.06;;;7.46;90.34
76448;BME280;65284;51.040;13.722;2023-02-24T01:26:35;99317.44;;;7.42;91.00
76448;BME280;65284;51.040;13.722;2023-02-24T01:29:02;99314.16;;;7.40;90.63
76448;BME280;65284;51.040;13.722;2023-02-24T01:31:38;99315.28;;;7.37;90.83
76448;BME280;65284;51.040;13.722;2023-02-24T01:34:12;99313.28;;;7.39;90.97
76448;BME280;65284;51.040;13.722;2023-02-24T01:36:40;99291.97;;;7.33;91.24
76448;BME280;65284;51.040;13.722;2023-02-24T01:39:09;99299.25;;;7.31;91.32
76448;BME280;65284;51.040;13.722;2023-02-24T01:41:43;99296.94;;;7.36;90.50
76448;BME280;65284;51.040;13.722;2023-02-24T01:46:40;99291.28;;;7.22;89.61
76448;BME280;65284;51.040;13.722;2023-02-24T01:54:35;99275.75;;;7.27;88.89
76448;BME280;65284;51.040;13.722;2023-02-24T01:57:04;99279.03;;;7.21;88.77
76448;BME280;65284;51.040;13.722;2023-02-24T01:59:32;99275.75;;;7.19;89.22
76448;BME280;65284;51.040;13.722;2023-02-24T02:02:03;99272.47;;;7.25;89.48
76448;BME280;65284;51.040;13.722;2023-02-24T02:04:37;99265.50;;;7.16;88.98
76448;BME280;65284;51.040;13.722;2023-02-24T02:07:05;99271.41;;;7.18;89.17
76448;BME280;65284;51.040;13.722;2023-02-24T02:09:31;99263.34;;;7.20;88.95
76448;BME280;65284;51.040;13.722;2023-02-24T02:11:59;99262.53;;;7.19;88.96
76448;BME280;65284;51.040;13.722;2023-02-24T02:14:26;99262.53;;;7.19;88.92
76448;BME280;65284;51.040;13.722;2023-02-24T02:17:04;99267.13;;;7.17;88.10
76448;BME280;65284;51.040;13.722;2023-02-24T02:22:55;99251.44;;;7.16;88.32
76448;BME280;65284;51.040;13.722;2023-02-24T02:28:29;99253.56;;;7.12;87.85
76448;BME280;65284;51.040;13.722;2023-02-24T02:31:30;99251.44;;;7.16;88.20
76448;BME280;65284;51.040;13.722;2023-02-24T02:42:03;99235.06;;;7.04;87.89
76448;BME280;65284;51.040;13.722;2023-02-24T02:44:38;99244.94;;;7.02;88.85
76448;BME280;65284;51.040;13.722;2023-02-24T02:47:24;99240.31;;;6.96;89.17
76448;BME280;65284;51.040;13.722;2023-02-24T02:49:57;99246.84;;;6.92;89.58
76448;BME280;65284;51.040;13.722;2023-02-24T02:52:31;99237.66;;;6.96;90.09
76448;BME280;65284;51.040;13.722;2023-02-24T02:55:05;99237.25;;;6.82;90.45
76448;BME280;65284;51.040;13.722;2023-02-24T02:57:37;99239.88;;;6.82;91.11
76448;BME280;65284;51.040;13.722;2023-02-24T03:00:11;99234.97;;;6.88;91.23
76448;BME280;65284;51.040;13.722;2023-02-24T03:02:47;99234.28;;;6.86;91.32
76448;BME280;65284;51.040;13.722;2023-02-24T03:05:18;99237.47;;;6.89;90.91
76448;BME280;65284;51.040;13.722;2023-02-24T03:07:50;99225.59;;;6.93;90.74
76448;BME280;65284;51.040;13.722;2023-02-24T03:10:27;99221.41;;;6.82;91.01
76448;BME280;65284;51.040;13.722;2023-02-24T03:12:56;99222.53;;;6.80;91.40
76448;BME280;65284;51.040;13.722;2023-02-24T03:15:27;99234.59;;;6.82;91.94
76448;BME280;65284;51.040;13.722;2023-02-24T03:18:08;99244.25;;;6.66;90.93
76448;BME280;65284;51.040;13.722;2023-02-24T03:20:43;99248.06;;;6.45;91.13
76448;BME280;65284;51.040;13.722;2023-02-24T03:23:14;99247.81;;;6.38;92.41
76448;BME280;65284;51.040;13.722;2023-02-24T03:26:28;99246.41;;;6.26;92.63
76448;BME280;65284;51.040;13.722;2023-02-24T03:28:36;99245.28;;;6.11;93.17
76448;BME280;65284;51.040;13.722;2023-02-24T03:31:24;99226.13;;;6.09;93.27
76448;BME280;65284;51.040;13.722;2023-02-24T03:34:10;99240.53;;;5.97;93.43
76448;BME280;65284;51.040;13.722;2023-02-24T03:36:38;99230.69;;;5.99;93.31
76448;BME280;65284;51.040;13.722;2023-02-24T03:39:05;99239.47;;;5.89;93.37
76448;BME280;65284;51.040;13.722;2023-02-24T03:41:41;99241.69;;;5.84;93.92
76448;BME280;65284;51.040;13.722;2023-02-24T03:44:09;99224.84;;;5.77;93.93
76448;BME280;65284;51.040;13.722;2023-02-24T03:46:37;99233.09;;;5.82;93.90
76448;BME280;65284;51.040;13.722;2023-02-24T03:49:08;99229.72;;;5.72;93.99
76448;BME280;65284;51.040;13.722;2023-02-24T03:51:35;99230.78;;;5.79;93.43
76448;BME280;65284;51.040;13.722;2023-02-24T03:54:16;99231.31;;;5.83;94.30
76448;BME280;65284;51.040;13.722;2023-02-24T03:56:58;99232.66;;;5.69;94.03
76448;BME280;65284;51.040;13.722;2023-02-24T03:59:51;99242.59;;;5.75;94.16
76448;BME280;65284;51.040;13.722;2023-02-24T04:02:27;99235.97;;;5.71;94.20
76448;BME280;65284;51.040;13.722;2023-02-24T04:05:05;99238.91;;;5.68;93.48
76448;BME280;65284;51.040;13.722;2023-02-24T04:13:11;99239.13;;;5.57;93.23
76448;BME280;65284;51.040;13.722;2023-02-24T04:15:49;99226.53;;;5.51;93.86
76448;BME280;65284;51.040;13.722;2023-02-24T04:18:21;99230.69;;;5.53;93.85
76448;BME280;65284;51.040;13.722;2023-02-24T04:20:48;99221.28;;;5.51;93.81
76448;BME280;65284;51.040;13.722;2023-02-24T04:23:19;99212.69;;;5.48;93.84
76448;BME280;65284;51.040;13.722;2023-02-24T04:25:50;99223.91;;;5.51;93.16
76448;BME280;65284;51.040;13.722;2023-02-24T04:28:18;99203.50;;;5.53;92.55
76448;BME280;65284;51.040;13.722;2023-02-24T04:30:50;99195.31;;;5.56;92.97
76448;BME280;65284;51.040;13.722;2023-02-24T04:33:18;99205.09;;;5.45;92.60
76448;BME280;65284;51.040;13.722;2023-02-24T04:35:48;99198.41;;;5.51;91.89
76448;BME280;65284;51.040;13.722;2023-02-24T04:38:19;99180.88;;;5.60;91.77
76448;BME280;65284;51.040;13.722;2023-02-24T04:40:45;99185.63;;;5.56;92.06
76448;BME280;65284;51.040;13.722;2023-02-24T04:43:12;99178.53;;;5.57;92.03
76448;BME280;65284;51.040;13.722;2023-02-24T04:45:38;99172.38;;;5.66;92.02
76448;BME280;65284;51.040;13.722;2023-02-24T04:48:06;99168.09;;;5.65;90.98
76448;BME280;65284;51.040;13.722;2023-02-24T04:50:41;99169.06;;;5.64;91.04
76448;BME280;65284;51.040;13.722;2023-02-24T04:53:15;99166.94;;;5.67;91.52
76448;BME280;65284;51.040;13.722;2023-02-24T04:55:46;99162.44;;;5.60;91.29
76448;BME280;65284;51.040;13.722;2023-02-24T04:58:19;99161.97;;;5.64;91.21
76448;BME280;65284;51.040;13.722;2023-02-24T05:00:47;99163.19;;;5.70;91.19
76448;BME280;65284;51.040;13.722;2023-02-24T05:03:15;99160.19;;;5.65;91.16
76448;BME280;65284;51.040;13.722;2023-02-24T05:05:54;99152.63;;;5.70;90.75
76448;BME280;65284;51.040;13.722;2023-02-24T05:08:23;99156.09;;;5.70;89.95
76448;BME280;65284;51.040;13.722;2023-02-24T05:10:50;99152.94;;;5.85;90.14
76448;BME280;65284;51.040;13.722;2023-02-24T05:13:21;99149.09;;;5.79;90.43
76448;BME280;65284;51.040;13.722;2023-02-24T05:15:53;99151.69;;;5.71;90.53
76448;BME280;65284;51.040;13.722;2023-02-24T05:18:20;99148.75;;;5.74;90.28
76448;BME280;65284;51.040;13.722;2023-02-24T05:20:51;99141.66;;;5.75;90.61
76448;BME280;65284;51.040;13.722;2023-02-24T05:23:39;99144.44;;;5.73;90.74
76448;BME280;65284;51.040;13.722;2023-02-24T05:26:07;99141.66;;;5.75;89.75
76448;BME280;65284;51.040;13.722;2023-02-24T05:28:39;99140.28;;;5.70;90.57
76448;BME280;65284;51.040;13.722;2023-02-24T05:31:17;99141.19;;;5.79;90.21
76448;BME280;65284;51.040;13.722;2023-02-24T05:33:47;99139.03;;;5.75;90.83
76448;BME280;65284;51.040;13.722;2023-02-24T05:36:16;99143.63;;;5.73;90.19
76448;BME280;65284;51.040;13.722;2023-02-24T05:38:47;99132.84;;;5.66;89.15
76448;BME280;65284;51.040;13.722;2023-02-24T05:41:16;99134.19;;;5.70;88.83
76448;BME280;65284;51.040;13.722;2023-02-24T05:43:44;99142.63;;;5.56;89.61
76448;BME280;65284;51.040;13.722;2023-02-24T05:46:21;99140.28;;;5.53;89.74
76448;BME280;65284;51.040;13.722;2023-02-24T05:48:54;99150.09;;;5.42;89.35
76448;BME280;65284;51.040;13.722;2023-02-24T05:51:25;99153.50;;;5.25;90.09
76448;BME280;65284;51.040;13.722;2023-02-24T05:53:52;99158.69;;;5.17;91.79
76448;BME280;65284;51.040;13.722;2023-02-24T05:56:22;99159.16;;;5.02;91.45
76448;BME280;65284;51.040;13.722;2023-02-24T05:58:50;99153.53;;;4.97;91.64
76448;BME280;65284;51.040;13.722;2023-02-24T06:01:33;99142.22;;;4.87;92.39
76448;BME280;65284;51.040;13.722;2023-02-24T06:04:05;99162.31;;;4.78;91.71
76448;BME280;65284;51.040;13.722;2023-02-24T06:06:39;99195.22;;;4.65;91.67
76448;BME280;65284;51.040;13.722;2023-02-24T06:09:09;99165.28;;;4.66;91.09
76448;BME280;65284;51.040;13.722;2023-02-24T06:11:39;99159.63;;;4.61;91.19
76448;BME280;65284;51.040;13.722;2023-02-24T06:14:06;99164.78;;;4.52;91.25
76448;BME280;65284;51.040;13.722;2023-02-24T06:16:34;99174.91;;;4.38;91.84
76448;BME280;65284;51.040;13.722;2023-02-24T06:19:00;99170.22;;;4.41;91.76
76448;BME280;65284;51.040;13.722;2023-02-24T06:21:27;99179.50;;;4.26;91.36
76448;BME280;65284;51.040;13.722;2023-02-24T06:23:56;99172.88;;;4.22;90.53
76448;BME280;65284;51.040;13.722;2023-02-24T06:26:26;99175.09;;;4.17;90.38
76448;BME280;65284;51.040;13.722;2023-02-24T06:28:59;99166.25;;;3.98;88.13
76448;BME280;65284;51.040;13.722;2023-02-24T06:31:25;99175.25;;;3.86;89.24
76448;BME280;65284;51.040;13.722;2023-02-24T06:33:55;99170.69;;;3.78;90.15
76448;BME280;65284;51.040;13.722;2023-02-24T06:36:22;99163.25;;;3.74;89.88
76448;BME280;65284;51.040;13.722;2023-02-24T06:38:48;99169.19;;;3.76;89.39
76448;BME280;65284;51.040;13.722;2023-02-24T06:41:15;99175.38;;;3.75;89.25
76448;BME280;65284;51.040;13.722;2023-02-24T06:43:43;99187.81;;;3.63;89.59
76448;BME280;65284;51.040;13.722;2023-02-24T06:46:14;99181.19;;;3.69;89.77
76448;BME280;65284;51.040;13.722;2023-02-24T06:48:41;99159.75;;;3.63;89.53
76448;BME280;65284;51.040;13.722;2023-02-24T06:51:10;99171.25;;;3.62;89.55
76448;BME280;65284;51.040;13.722;2023-02-24T06:53:39;99166.25;;;3.59;89.88
76448;BME280;65284;51.040;13.722;2023-02-24T06:56:12;99170.25;;;3.63;89.73
76448;BME280;65284;51.040;13.722;2023-02-24T06:58:49;99159.38;;;3.58;90.09
76448;BME280;65284;51.040;13.722;2023-02-24T07:01:23;99155.75;;;3.59;90.11
76448;BME280;65284;51.040;13.722;2023-02-24T07:03:56;99169.00;;;3.48;90.57
76448;BME280;65284;51.040;13.722;2023-02-24T07:06:39;99162.53;;;3.52;90.86
76448;BME280;65284;51.040;13.722;2023-02-24T07:09:08;99184.75;;;3.48;90.27
76448;BME280;65284;51.040;13.722;2023-02-24T07:11:40;99161.84;;;3.50;90.68
76448;BME280;65284;51.040;13.722;2023-02-24T07:14:08;99162.41;;;3.54;90.09
76448;BME280;65284;51.040;13.722;2023-02-24T07:16:36;99161.03;;;3.59;90.67
76448;BME280;65284;51.040;13.722;2023-02-24T07:19:09;99170.41;;;3.52;90.35
76448;BME280;65284;51.040;13.722;2023-02-24T07:21:43;99154.94;;;3.49;90.57
76448;BME280;65284;51.040;13.722;2023-02-24T07:24:17;99155.63;;;3.51;90.46
76448;BME280;65284;51.040;13.722;2023-02-24T07:26:58;99162.38;;;3.34;90.47
76448;BME280;65284;51.040;13.722;2023-02-24T07:29:25;99168.28;;;3.27;88.08
76448;BME280;65284;51.040;13.722;2023-02-24T07:31:52;99146.72;;;3.13;88.95
76448;BME280;65284;51.040;13.722;2023-02-24T07:34:23;99154.47;;;3.15;87.56
76448;BME280;65284;51.040;13.722;2023-02-24T07:36:51;99152.34;;;2.99;87.71
76448;BME280;65284;51.040;13.722;2023-02-24T07:39:18;99172.81;;;3.05;86.78
76448;BME280;65284;51.040;13.722;2023-02-24T07:41:45;99162.66;;;2.81;85.83
76448;BME280;65284;51.040;13.722;2023-02-24T07:44:16;99151.47;;;2.89;85.99
76448;BME280;65284;51.040;13.722;2023-02-24T07:46:45;99142.41;;;2.93;86.77
76448;BME280;65284;51.040;13.722;2023-02-24T07:49:13;99136.03;;;2.95;86.43
76448;BME280;65284;51.040;13.722;2023-02-24T07:51:40;99143.63;;;2.89;84.51
76448;BME280;65284;51.040;13.722;2023-02-24T07:54:09;99143.34;;;2.92;84.18
76448;BME280;65284;51.040;13.722;2023-02-24T07:56:37;99136.28;;;2.83;85.08
76448;BME280;65284;51.040;13.722;2023-02-24T07:59:12;99140.25;;;2.77;83.93
76448;BME280;65284;51.040;13.722;2023-02-24T08:01:41;99138.19;;;2.81;84.86
76448;BME280;65284;51.040;13.722;2023-02-24T08:04:21;99122.50;;;2.90;85.14
76448;BME280;65284;51.040;13.722;2023-02-24T08:06:48;99119.09;;;3.09;84.95
76448;BME280;65284;51.040;13.722;2023-02-24T08:09:32;99120.63;;;3.12;84.75
76448;BME280;65284;51.040;13.722;2023-02-24T08:12:19;99117.56;;;2.97;84.00
76448;BME280;65284;51.040;13.722;2023-02-24T08:14:49;99117.28;;;3.00;84.84
76448;BME280;65284;51.040;13.722;2023-02-24T08:17:18;99107.34;;;2.94;82.79
76448;BME280;65284;51.040;13.722;2023-02-24T08:19:50;99113.94;;;2.88;83.83
76448;BME280;65284;51.040;13.722;2023-02-24T08:22:26;99108.16;;;2.85;83.66
76448;BME280;65284;51.040;13.722;2023-02-24T08:24:58;99099.84;;;2.89;83.15
76448;BME280;65284;51.040;13.722;2023-02-24T08:27:33;99100.28;;;2.85;81.61
76448;BME280;65284;51.040;13.722;2023-02-24T08:30:05;99093.41;;;2.93;82.84
76448;BME280;65284;51.040;13.722;2023-02-24T08:32:36;99089.94;;;2.93;83.06
76448;BME280;65284;51.040;13.722;2023-02-24T08:35:06;99084.84;;;3.01;84.03
76448;BME280;65284;51.040;13.722;2023-02-24T08:37:51;99083.91;;;3.02;85.23
76448;BME280;65284;51.040;13.722;2023-02-24T08:40:28;99080.84;;;3.07;84.90
76448;BME280;65284;51.040;13.722;2023-02-24T08:43:07;99079.47;;;3.12;84.69
76448;BME280;65284;51.040;13.722;2023-02-24T08:48:12;99073.97;;;3.15;84.02
76448;BME280;65284;51.040;13.722;2023-02-24T08:50:53;99078.66;;;3.02;84.86
76448;BME280;65284;51.040;13.722;2023-02-24T08:53:21;99070.34;;;3.07;85.22
76448;BME280;65284;51.040;13.722;2023-02-24T08:55:48;99068.72;;;3.15;86.24
76448;BME280;65284;51.040;13.722;2023-02-24T08:58:18;99060.84;;;3.06;85.72
76448;BME280;65284;51.040;13.722;2023-02-24T09:00:56;99049.66;;;3.13;85.90
76448;BME280;65284;51.040;13.722;2023-02-24T09:03:27;99045.81;;;3.17;85.80
76448;BME280;65284;51.040;13.722;2023-02-24T09:06:00;99043.88;;;3.19;85.18
76448;BME280;65284;51.040;13.722;2023-02-24T09:08:35;99038.06;;;3.26;84.48
76448;BME280;65284;51.040;13.722;2023-02-24T09:11:06;99034.47;;;3.27;85.00
76448;BME280;65284;51.040;13.722;2023-02-24T09:13:36;99036.97;;;3.38;84.37
76448;BME280;65284;51.040;13.722;2023-02-24T09:16:08;99030.72;;;3.39;84.64
76448;BME280;65284;51.040;13.722;2023-02-24T09:18:41;99017.75;;;3.47;84.58
76448;BME280;65284;51.040;13.722;2023-02-24T09:21:13;99020.91;;;3.51;84.85
76448;BME280;65284;51.040;13.722;2023-02-24T09:23:59;99018.44;;;3.49;84.25
76448;BME280;65284;51.040;13.722;2023-02-24T09:26:28;99009.03;;;3.56;84.42
76448;BME280;65284;51.040;13.722;2023-02-24T09:28:58;98998.53;;;3.56;84.20
76448;BME280;65284;51.040;13.722;2023-02-24T09:31:24;99001.56;;;3.61;83.91
76448;BME280;65284;51.040;13.722;2023-02-24T09:34:07;99000.47;;;3.64;85.09
76448;BME280;65284;51.040;13.722;2023-02-24T09:36:35;98978.59;;;3.63;84.71
76448;BME280;65284;51.040;13.722;2023-02-24T09:39:10;98980.66;;;3.70;85.06
76448;BME280;65284;51.040;13.722;2023-02-24T09:41:45;98975.94;;;3.83;85.47
76448;BME280;65284;51.040;13.722;2023-02-24T09:44:28;98971.22;;;3.86;83.79
76448;BME280;65284;51.040;13.722;2023-02-24T09:47:19;98964.69;;;4.00;85.10
76448;BME280;65284;51.040;13.722;2023-02-24T09:49:59;98951.94;;;4.05;84.23
76448;BME280;65284;51.040;13.722;2023-02-24T09:52:30;98956.56;;;4.21;82.51
76448;BME280;65284;51.040;13.722;2023-02-24T09:55:16;98951.13;;;3.95;83.04
76448;BME280;65284;51.040;13.722;2023-02-24T09:58:19;98956.91;;;4.08;83.39
76448;BME280;65284;51.040;13.722;2023-02-24T10:01:26;98939.09;;;4.02;83.68
76448;BME280;65284;51.040;13.722;2023-02-24T10:06:48;98939.84;;;4.40;80.82
76448;BME280;65284;51.040;13.722;2023-02-24T10:09:26;98933.22;;;4.36;81.64
76448;BME280;65284;51.040;13.722;2023-02-24T10:12:06;98934.13;;;4.27;81.83
76448;BME280;65284;51.040;13.722;2023-02-24T10:17:26;98916.41;;;4.29;82.96
76448;BME280;65284;51.040;13.722;2023-02-24T10:20:18;98912.00;;;4.47;82.00
76448;BME280;65284;51.040;13.722;2023-02-24T10:23:19;98900.72;;;4.55;81.97
76448;BME280;65284;51.040;13.722;2023-02-24T10:26:05;98901.19;;;4.68;81.21
76448;BME280;65284;51.040;13.722;2023-02-24T10:28:56;98884.50;;;4.77;82.02
76448;BME280;65284;51.040;13.722;2023-02-24T10:31:36;98878.84;;;4.90;81.85
76448;BME280;65284;51.040;13.722;2023-02-24T10:34:11;98874.22;;;5.10;82.67
76448;BME280;65284;51.040;13.722;2023-02-24T10:36:38;98870.72;;;5.28;82.49
76448;BME280;65284;51.040;13.722;2023-02-24T10:39:21;98872.97;;;5.48;81.71
76448;BME280;65284;51.040;13.722;2023-02-24T10:41:59;98865.09;;;5.48;81.20
76448;BME280;65284;51.040;13.722;2023-02-24T10:44:48;98862.44;;;5.48;80.67
76448;BME280;65284;51.040;13.722;2023-02-24T10:47:29;98855.25;;;5.59;80.83
76448;BME280;65284;51.040;13.722;2023-02-24T10:49:58;98841.84;;;5.44;80.68
76448;BME280;65284;51.040;13.722;2023-02-24T10:52:34;98837.69;;;5.33;80.36
76448;BME280;65284;51.040;13.722;2023-02-24T10:55:24;98832.44;;;5.33;80.51
76448;BME280;65284;51.040;13.722;2023-02-24T10:58:05;98830.31;;;5.11;81.58
76448;BME280;65284;51.040;13.722;2023-02-24T11:00:38;98821.78;;;5.17;82.26
76448;BME280;65284;51.040;13.722;2023-02-24T11:03:27;98817.88;;;5.21;81.57
76448;BME280;65284;51.040;13.722;2023-02-24T11:06:02;98815.50;;;5.10;81.49
76448;BME280;65284;51.040;13.722;2023-02-24T11:08:35;98814.56;;;5.19;81.97
76448;BME280;65284;51.040;13.722;2023-02-24T11:11:15;98806.38;;;5.22;82.19
76448;BME280;65284;51.040;13.722;2023-02-24T11:13:52;98800.41;;;5.20;82.60
76448;BME280;65284;51.040;13.722;2023-02-24T11:16:44;98790.75;;;5.29;81.32
76448;BME280;65284;51.040;13.722;2023-02-24T11:19:32;98778.72;;;5.26;80.83
76448;BME280;65284;51.040;13.722;2023-02-24T11:22:03;98769.75;;;5.37;79.57
76448;BME280;65284;51.040;13.722;2023-02-24T11:24:29;98775.59;;;5.57;79.41
76448;BME280;65284;51.040;13.722;2023-02-24T11:26:56;98764.25;;;5.56;79.41
76448;BME280;65284;51.040;13.722;2023-02-24T11:35:12;98741.53;;;5.63;79.04
76448;BME280;65284;51.040;13.722;2023-02-24T11:38:09;98722.94;;;5.65;80.14
76448;BME280;65284;51.040;13.722;2023-02-24T11:40:56;98723.25;;;5.70;80.34
76448;BME280;65284;51.040;13.722;2023-02-24T11:43:25;98723.97;;;5.80;79.74
76448;BME280;65284;51.040;13.722;2023-02-24T11:45:57;98719.50;;;5.81;79.49
76448;BME280;65284;51.040;13.722;2023-02-24T11:48:38;98725.59;;;5.81;78.71
76448;BME280;65284;51.040;13.722;2023-02-24T11:51:11;98716.34;;;5.69;79.10
76448;BME280;65284;51.040;13.722;2023-02-24T11:53:49;98706.16;;;5.74;79.18
76448;BME280;65284;51.040;13.722;2023-02-24T11:56:26;98689.69;;;5.88;78.23
76448;BME280;65284;51.040;13.722;2023-02-24T11:59:16;98685.75;;;5.92;79.21
76448;BME280;65284;51.040;13.722;2023-02-24T12:01:58;98682.19;;;6.10;78.44
76448;BME280;65284;51.040;13.722;2023-02-24T12:04:37;98668.34;;;6.08;77.82
76448;BME280;65284;51.040;13.722;2023-02-24T12:07:16;98666.84;;;5.97;78.25
76448;BME280;65284;51.040;13.722;2023-02-24T12:09:45;98672.28;;;5.96;77.14
76448;BME280;65284;51.040;13.722;2023-02-24T12:12:22;98660.72;;;5.80;78.30
76448;BME280;65284;51.040;13.722;2023-02-24T12:14:53;98660.91;;;5.87;78.10
76448;BME280;65284;51.040;13.722;2023-02-24T12:17:34;98650.19;;;5.88;78.76
76448;BME280;65284;51.040;13.722;2023-02-24T12:20:22;98645.91;;;5.87;77.96
76448;BME280;65284;51.040;13.722;2023-02-24T12:22:55;98644.94;;;5.97;77.13
76448;BME280;65284;51.040;13.722;2023-02-24T12:25:24;98624.50;;;5.90;75.79
76448;BME280;65284;51.040;13.722;2023-02-24T12:28:04;98631.13;;;5.95;75.91
76448;BME280;65284;51.040;13.722;2023-02-24T12:31:06;98624.53;;;5.99;76.02
76448;BME280;65284;51.040;13.722;2023-02-24T12:33:45;98624.50;;;5.90;77.72
76448;BME280;65284;51.040;13.722;2023-02-24T12:36:21;98621.19;;;5.88;77.06
76448;BME280;65284;51.040;13.722;2023-02-24T12:39:13;98608.72;;;5.74;77.62
76448;BME280;65284;51.040;13.722;2023-02-24T12:44:28;98612.31;;;5.65;76.51
76448;BME280;65284;51.040;13.722;2023-02-24T12:47:09;98626.13;;;5.59;76.94
76448;BME280;65284;51.040;13.722;2023-02-24T12:58:14;98586.81;;;5.65;76.57
76448;BME280;65284;51.040;13.722;2023-02-24T13:03:38;98565.22;;;5.70;76.53
76448;BME280;65284;51.040;13.722;2023-02-24T13:06:22;98577.44;;;5.71;76.50
76448;BME280;65284;51.040;13.722;2023-02-24T13:08:57;98565.88;;;5.64;76.16
76448;BME280;65284;51.040;13.722;2023-02-24T13:11:35;98553.06;;;5.69;75.97
76448;BME280;65284;51.040;13.722;2023-02-24T13:14:25;98563.59;;;5.69;76.65
76448;BME280;65284;51.040;13.722;2023-02-24T13:19:30;98551.75;;;5.65;76.40
76448;BME280;65284;51.040;13.722;2023-02-24T13:22:18;98544.50;;;5.67;76.44
76448;BME280;65284;51.040;13.722;2023-02-24T13:24:56;98535.91;;;5.73;76.31
76448;BME280;65284;51.040;13.722;2023-02-24T13:27:28;98528.19;;;5.80;77.01
76448;BME280;65284;51.040;13.722;2023-02-24T13:29:57;98522.41;;;5.84;76.08
76448;BME280;65284;51.040;13.722;2023-02-24T13:32:33;98514.50;;;6.01;76.45
76448;BME280;65284;51.040;13.722;2023-02-24T13:37:40;98518.47;;;5.97;76.31
76448;BME280;65284;51.040;13.722;2023-02-24T13:43:01;98497.03;;;6.08;77.37
76448;BME280;65284;51.040;13.722;2023-02-24T13:45:38;98501.63;;;6.06;76.71
76448;BME280;65284;51.040;13.722;2023-02-24T13:51:38;98487.88;;;6.27;78.21
76448;BME280;65284;51.040;13.722;2023-02-24T13:54:30;98486.94;;;6.20;76.62
76448;BME280;65284;51.040;13.722;2023-02-24T14:00:17;98479.19;;;6.18;76.42
76448;BME280;65284;51.040;13.722;2023-02-24T14:02:47;98475.56;;;6.19;75.89
76448;BME280;65284;51.040;13.722;2023-02-24T14:05:21;98472.28;;;6.17;75.30
76448;BME280;65284;51.040;13.722;2023-02-24T14:07:50;98470.66;;;6.08;76.22
76448;BME280;65284;51.040;13.722;2023-02-24T14:10:21;98470.50;;;6.09;75.63
76448;BME280;65284;51.040;13.722;2023-02-24T14:13:00;98463.09;;;6.05;76.03
76448;BME280;65284;51.040;13.722;2023-02-24T14:15:28;98471.34;;;6.02;77.02
76448;BME280;65284;51.040;13.722;2023-02-24T14:17:57;98467.09;;;6.01;77.79
76448;BME280;65284;51.040;13.722;2023-02-24T14:20:26;98472.34;;;5.84;78.21
76448;BME280;65284;51.040;13.722;2023-02-24T14:22:55;98468.41;;;5.80;79.05
76448;BME280;65284;51.040;13.722;2023-02-24T14:25:25;98462.81;;;5.75;81.14
76448;BME280;65284;51.040;13.722;2023-02-24T14:27:53;98466.81;;;5.71;81.31
76448;BME280;65284;51.040;13.722;2023-02-24T14:30:23;98466.16;;;5.61;81.02
76448;BME280;65284;51.040;13.722;2023-02-24T14:32:50;98467.28;;;5.58;81.73
76448;BME280;65284;51.040;13.722;2023-02-24T14:35:32;98449.03;;;5.57;81.96
76448;BME280;65284;51.040;13.722;2023-02-24T14:38:00;98457.91;;;5.56;80.73
76448;BME280;65284;51.040;13.722;2023-02-24T14:40:27;98445.75;;;5.63;79.26
76448;BME280;65284;51.040;13.722;2023-02-24T14:42:57;98448.06;;;5.50;79.95
76448;BME280;65284;51.040;13.722;2023-02-24T14:45:27;98437.53;;;5.50;80.66